Terminal Aerodrome Forecast
Issued by NWS

Current Version | Previous Version | Text Only | Print | Product List | Glossary On
Versions: 1 2 3 4 5 6 7 8 9 10 11 12 13 14 15 16 17 18 19
000
FTUS44 KTSA 060525
TAFFYV
TAF
KFYV 060525Z 0606/0706 17005KT P6SM SCT040 BKN200
     FM061000 19005KT 5SM BR OVC015
     FM061700 19012G20KT P6SM SCT025 BKN040
     FM070000 18008KT P6SM SCT050 BKN250=

USA.gov is the U.S. government's official web portal to all federal, state and local government web resources and services.